sensor_id;sensor_type;location;lat;lon;timestamp;P1;durP1;ratioP1;P2;durP2;ratioP2
11535;SDS011;5824;49.336;8.652;2023-01-19T00:01:22;21.10;;;11.50;;
11535;SDS011;5824;49.336;8.652;2023-01-19T00:03:49;25.83;;;11.97;;
11535;SDS011;5824;49.336;8.652;2023-01-19T00:06:14;26.20;;;12.93;;
11535;SDS011;5824;49.336;8.652;2023-01-19T00:08:40;26.40;;;12.33;;
11535;SDS011;5824;49.336;8.652;2023-01-19T00:11:08;27.83;;;14.37;;
11535;SDS011;5824;49.336;8.652;2023-01-19T00:13:35;27.27;;;13.40;;
11535;SDS011;5824;49.336;8.652;2023-01-19T00:16:00;23.70;;;13.27;;
11535;SDS011;5824;49.336;8.652;2023-01-19T00:18:26;25.13;;;14.23;;
11535;SDS011;5824;49.336;8.652;2023-01-19T00:20:52;21.50;;;12.90;;
11535;SDS011;5824;49.336;8.652;2023-01-19T00:23:17;21.93;;;12.53;;
11535;SDS011;5824;49.336;8.652;2023-01-19T00:25:44;23.13;;;12.97;;
11535;SDS011;5824;49.336;8.652;2023-01-19T00:28:11;24.20;;;12.50;;
11535;SDS011;5824;49.336;8.652;2023-01-19T00:30:38;25.90;;;14.63;;
11535;SDS011;5824;49.336;8.652;2023-01-19T00:33:04;19.00;;;10.57;;
11535;SDS011;5824;49.336;8.652;2023-01-19T00:35:30;21.60;;;12.00;;
11535;SDS011;5824;49.336;8.652;2023-01-19T00:37:56;23.20;;;12.13;;
11535;SDS011;5824;49.336;8.652;2023-01-19T00:40:22;23.33;;;13.43;;
11535;SDS011;5824;49.336;8.652;2023-01-19T00:42:47;26.10;;;12.40;;
11535;SDS011;5824;49.336;8.652;2023-01-19T00:45:14;20.00;;;11.57;;
11535;SDS011;5824;49.336;8.652;2023-01-19T00:47:42;21.47;;;11.90;;
11535;SDS011;5824;49.336;8.652;2023-01-19T00:50:09;23.07;;;11.77;;
11535;SDS011;5824;49.336;8.652;2023-01-19T00:52:35;22.83;;;11.80;;
11535;SDS011;5824;49.336;8.652;2023-01-19T00:55:01;22.67;;;12.87;;
11535;SDS011;5824;49.336;8.652;2023-01-19T00:57:27;21.90;;;12.60;;
11535;SDS011;5824;49.336;8.652;2023-01-19T00:59:53;22.53;;;13.47;;
11535;SDS011;5824;49.336;8.652;2023-01-19T01:02:19;20.23;;;12.10;;
11535;SDS011;5824;49.336;8.652;2023-01-19T01:04:44;28.87;;;12.90;;
11535;SDS011;5824;49.336;8.652;2023-01-19T01:07:10;21.73;;;12.83;;
11535;SDS011;5824;49.336;8.652;2023-01-19T01:09:35;25.47;;;12.83;;
11535;SDS011;5824;49.336;8.652;2023-01-19T01:12:01;22.70;;;12.17;;
11535;SDS011;5824;49.336;8.652;2023-01-19T01:14:27;25.53;;;13.03;;
11535;SDS011;5824;49.336;8.652;2023-01-19T01:16:52;20.13;;;12.67;;
11535;SDS011;5824;49.336;8.652;2023-01-19T01:19:19;21.70;;;12.00;;
11535;SDS011;5824;49.336;8.652;2023-01-19T01:21:45;24.80;;;13.30;;
11535;SDS011;5824;49.336;8.652;2023-01-19T01:24:10;23.43;;;12.67;;
11535;SDS011;5824;49.336;8.652;2023-01-19T01:26:36;24.87;;;13.10;;
11535;SDS011;5824;49.336;8.652;2023-01-19T01:29:01;24.43;;;13.70;;
11535;SDS011;5824;49.336;8.652;2023-01-19T01:31:28;21.07;;;13.13;;
11535;SDS011;5824;49.336;8.652;2023-01-19T01:33:54;22.57;;;11.60;;
11535;SDS011;5824;49.336;8.652;2023-01-19T01:36:20;23.93;;;12.73;;
11535;SDS011;5824;49.336;8.652;2023-01-19T01:38:46;23.80;;;13.80;;
11535;SDS011;5824;49.336;8.652;2023-01-19T01:41:12;22.37;;;12.40;;
11535;SDS011;5824;49.336;8.652;2023-01-19T01:43:47;22.30;;;12.50;;
11535;SDS011;5824;49.336;8.652;2023-01-19T01:46:15;20.70;;;12.40;;
11535;SDS011;5824;49.336;8.652;2023-01-19T01:48:43;22.13;;;12.97;;
11535;SDS011;5824;49.336;8.652;2023-01-19T01:51:25;24.23;;;12.77;;
11535;SDS011;5824;49.336;8.652;2023-01-19T01:56:30;25.43;;;12.87;;
11535;SDS011;5824;49.336;8.652;2023-01-19T01:58:58;28.53;;;13.03;;
11535;SDS011;5824;49.336;8.652;2023-01-19T02:01:29;27.00;;;13.17;;
11535;SDS011;5824;49.336;8.652;2023-01-19T02:04:13;28.83;;;14.23;;
11535;SDS011;5824;49.336;8.652;2023-01-19T02:06:38;28.80;;;13.50;;
11535;SDS011;5824;49.336;8.652;2023-01-19T02:09:23;26.67;;;13.20;;
11535;SDS011;5824;49.336;8.652;2023-01-19T02:12:11;21.30;;;12.77;;
11535;SDS011;5824;49.336;8.652;2023-01-19T02:14:56;25.30;;;12.87;;
11535;SDS011;5824;49.336;8.652;2023-01-19T02:17:21;22.83;;;12.90;;
11535;SDS011;5824;49.336;8.652;2023-01-19T02:19:47;24.43;;;13.43;;
11535;SDS011;5824;49.336;8.652;2023-01-19T02:22:21;22.93;;;12.47;;
11535;SDS011;5824;49.336;8.652;2023-01-19T02:24:53;23.63;;;13.60;;
11535;SDS011;5824;49.336;8.652;2023-01-19T02:27:19;24.00;;;13.40;;
11535;SDS011;5824;49.336;8.652;2023-01-19T02:29:44;22.80;;;13.17;;
11535;SDS011;5824;49.336;8.652;2023-01-19T02:32:10;24.40;;;13.20;;
11535;SDS011;5824;49.336;8.652;2023-01-19T02:34:36;23.13;;;13.00;;
11535;SDS011;5824;49.336;8.652;2023-01-19T02:37:03;22.10;;;12.53;;
11535;SDS011;5824;49.336;8.652;2023-01-19T02:39:36;24.50;;;13.10;;
11535;SDS011;5824;49.336;8.652;2023-01-19T02:42:08;23.60;;;13.00;;
11535;SDS011;5824;49.336;8.652;2023-01-19T02:44:53;25.37;;;12.50;;
11535;SDS011;5824;49.336;8.652;2023-01-19T02:47:19;26.43;;;12.03;;
11535;SDS011;5824;49.336;8.652;2023-01-19T02:49:58;21.77;;;12.73;;
11535;SDS011;5824;49.336;8.652;2023-01-19T02:52:24;19.13;;;11.93;;
11535;SDS011;5824;49.336;8.652;2023-01-19T02:55:33;22.00;;;11.83;;
11535;SDS011;5824;49.336;8.652;2023-01-19T03:00:24;21.53;;;12.57;;
11535;SDS011;5824;49.336;8.652;2023-01-19T03:08:21;22.47;;;12.80;;
11535;SDS011;5824;49.336;8.652;2023-01-19T03:10:53;20.33;;;12.30;;
11535;SDS011;5824;49.336;8.652;2023-01-19T03:16:40;20.17;;;11.93;;
11535;SDS011;5824;49.336;8.652;2023-01-19T03:19:09;21.43;;;12.30;;
11535;SDS011;5824;49.336;8.652;2023-01-19T03:21:49;23.10;;;11.60;;
11535;SDS011;5824;49.336;8.652;2023-01-19T03:24:19;20.30;;;12.00;;
11535;SDS011;5824;49.336;8.652;2023-01-19T03:26:48;22.57;;;11.50;;
11535;SDS011;5824;49.336;8.652;2023-01-19T03:29:20;26.20;;;12.10;;
11535;SDS011;5824;49.336;8.652;2023-01-19T03:31:47;24.97;;;12.53;;
11535;SDS011;5824;49.336;8.652;2023-01-19T03:34:14;25.10;;;11.77;;
11535;SDS011;5824;49.336;8.652;2023-01-19T03:36:42;18.77;;;11.57;;
11535;SDS011;5824;49.336;8.652;2023-01-19T03:39:11;18.07;;;11.27;;
11535;SDS011;5824;49.336;8.652;2023-01-19T03:41:42;21.47;;;11.90;;
11535;SDS011;5824;49.336;8.652;2023-01-19T03:44:12;21.73;;;11.30;;
11535;SDS011;5824;49.336;8.652;2023-01-19T03:46:38;17.83;;;11.47;;
11535;SDS011;5824;49.336;8.652;2023-01-19T03:49:04;20.67;;;12.40;;
11535;SDS011;5824;49.336;8.652;2023-01-19T03:51:34;17.27;;;11.33;;
11535;SDS011;5824;49.336;8.652;2023-01-19T03:54:01;23.30;;;12.33;;
11535;SDS011;5824;49.336;8.652;2023-01-19T03:56:29;19.60;;;11.33;;
11535;SDS011;5824;49.336;8.652;2023-01-19T03:58:55;19.93;;;12.07;;
11535;SDS011;5824;49.336;8.652;2023-01-19T04:01:20;26.30;;;13.03;;
11535;SDS011;5824;49.336;8.652;2023-01-19T04:03:46;21.07;;;12.00;;
11535;SDS011;5824;49.336;8.652;2023-01-19T04:06:13;21.30;;;12.17;;
11535;SDS011;5824;49.336;8.652;2023-01-19T04:08:38;25.63;;;13.77;;
11535;SDS011;5824;49.336;8.652;2023-01-19T04:11:04;24.43;;;13.67;;
11535;SDS011;5824;49.336;8.652;2023-01-19T04:13:32;26.73;;;13.30;;
11535;SDS011;5824;49.336;8.652;2023-01-19T04:16:01;29.67;;;16.07;;
11535;SDS011;5824;49.336;8.652;2023-01-19T04:18:28;31.73;;;15.47;;
11535;SDS011;5824;49.336;8.652;2023-01-19T04:20:54;24.07;;;13.20;;
11535;SDS011;5824;49.336;8.652;2023-01-19T04:23:23;36.03;;;14.83;;
11535;SDS011;5824;49.336;8.652;2023-01-19T04:25:49;28.03;;;15.27;;
11535;SDS011;5824;49.336;8.652;2023-01-19T04:28:14;26.50;;;14.07;;
11535;SDS011;5824;49.336;8.652;2023-01-19T04:30:40;23.17;;;13.50;;
11535;SDS011;5824;49.336;8.652;2023-01-19T04:33:06;25.13;;;13.90;;
11535;SDS011;5824;49.336;8.652;2023-01-19T04:35:31;29.17;;;15.73;;
11535;SDS011;5824;49.336;8.652;2023-01-19T04:37:58;25.97;;;14.63;;
11535;SDS011;5824;49.336;8.652;2023-01-19T04:40:23;30.90;;;16.30;;
11535;SDS011;5824;49.336;8.652;2023-01-19T04:42:49;25.57;;;15.30;;
11535;SDS011;5824;49.336;8.652;2023-01-19T04:45:14;32.17;;;16.57;;
11535;SDS011;5824;49.336;8.652;2023-01-19T04:47:41;31.33;;;15.63;;
11535;SDS011;5824;49.336;8.652;2023-01-19T04:50:07;25.53;;;14.90;;
11535;SDS011;5824;49.336;8.652;2023-01-19T04:52:33;39.40;;;20.53;;
11535;SDS011;5824;49.336;8.652;2023-01-19T04:55:00;48.67;;;23.87;;
11535;SDS011;5824;49.336;8.652;2023-01-19T04:57:27;33.47;;;18.20;;
11535;SDS011;5824;49.336;8.652;2023-01-19T04:59:54;33.00;;;16.50;;
11535;SDS011;5824;49.336;8.652;2023-01-19T05:02:20;31.77;;;17.60;;
11535;SDS011;5824;49.336;8.652;2023-01-19T05:04:46;33.20;;;18.20;;
11535;SDS011;5824;49.336;8.652;2023-01-19T05:07:12;23.97;;;13.80;;
11535;SDS011;5824;49.336;8.652;2023-01-19T05:09:37;26.10;;;13.60;;
11535;SDS011;5824;49.336;8.652;2023-01-19T05:12:03;23.17;;;13.37;;
11535;SDS011;5824;49.336;8.652;2023-01-19T05:14:29;25.47;;;13.00;;
11535;SDS011;5824;49.336;8.652;2023-01-19T05:16:55;23.33;;;12.93;;
11535;SDS011;5824;49.336;8.652;2023-01-19T05:19:20;20.77;;;12.17;;
11535;SDS011;5824;49.336;8.652;2023-01-19T05:21:46;19.30;;;12.27;;
11535;SDS011;5824;49.336;8.652;2023-01-19T05:24:11;37.03;;;14.47;;
11535;SDS011;5824;49.336;8.652;2023-01-19T05:26:37;23.70;;;13.17;;
11535;SDS011;5824;49.336;8.652;2023-01-19T05:29:03;20.90;;;12.50;;
11535;SDS011;5824;49.336;8.652;2023-01-19T05:31:28;22.43;;;12.30;;
11535;SDS011;5824;49.336;8.652;2023-01-19T05:33:54;22.90;;;13.00;;
11535;SDS011;5824;49.336;8.652;2023-01-19T05:36:19;22.30;;;12.37;;
11535;SDS011;5824;49.336;8.652;2023-01-19T05:38:45;22.50;;;12.83;;
11535;SDS011;5824;49.336;8.652;2023-01-19T05:41:10;19.07;;;11.73;;
11535;SDS011;5824;49.336;8.652;2023-01-19T05:43:36;23.07;;;12.60;;
11535;SDS011;5824;49.336;8.652;2023-01-19T05:46:02;19.20;;;11.17;;
11535;SDS011;5824;49.336;8.652;2023-01-19T05:48:29;21.57;;;12.40;;
11535;SDS011;5824;49.336;8.652;2023-01-19T05:50:58;20.73;;;13.10;;
11535;SDS011;5824;49.336;8.652;2023-01-19T05:53:24;20.93;;;12.50;;
11535;SDS011;5824;49.336;8.652;2023-01-19T05:55:49;26.03;;;13.50;;
11535;SDS011;5824;49.336;8.652;2023-01-19T05:58:15;29.90;;;13.10;;
11535;SDS011;5824;49.336;8.652;2023-01-19T06:00:40;24.93;;;12.90;;
11535;SDS011;5824;49.336;8.652;2023-01-19T06:03:06;20.00;;;12.07;;
11535;SDS011;5824;49.336;8.652;2023-01-19T06:05:32;24.47;;;13.30;;
11535;SDS011;5824;49.336;8.652;2023-01-19T06:07:58;20.30;;;12.80;;
11535;SDS011;5824;49.336;8.652;2023-01-19T06:10:23;22.40;;;12.73;;
11535;SDS011;5824;49.336;8.652;2023-01-19T06:12:49;24.53;;;13.40;;
11535;SDS011;5824;49.336;8.652;2023-01-19T06:15:16;23.07;;;14.00;;
11535;SDS011;5824;49.336;8.652;2023-01-19T06:17:42;22.23;;;12.80;;
11535;SDS011;5824;49.336;8.652;2023-01-19T06:20:07;23.90;;;13.07;;
11535;SDS011;5824;49.336;8.652;2023-01-19T06:22:33;23.63;;;13.50;;
11535;SDS011;5824;49.336;8.652;2023-01-19T06:24:59;28.13;;;13.33;;
11535;SDS011;5824;49.336;8.652;2023-01-19T06:27:24;26.17;;;13.20;;
11535;SDS011;5824;49.336;8.652;2023-01-19T06:29:50;23.10;;;12.23;;
11535;SDS011;5824;49.336;8.652;2023-01-19T06:32:15;23.17;;;13.30;;
11535;SDS011;5824;49.336;8.652;2023-01-19T06:34:41;24.93;;;13.43;;
11535;SDS011;5824;49.336;8.652;2023-01-19T06:37:08;25.30;;;14.13;;
11535;SDS011;5824;49.336;8.652;2023-01-19T06:39:35;19.57;;;11.77;;
11535;SDS011;5824;49.336;8.652;2023-01-19T06:42:02;21.80;;;11.73;;
11535;SDS011;5824;49.336;8.652;2023-01-19T06:44:27;18.63;;;11.37;;
11535;SDS011;5824;49.336;8.652;2023-01-19T06:46:53;24.07;;;12.33;;
11535;SDS011;5824;49.336;8.652;2023-01-19T06:49:18;19.20;;;10.70;;
11535;SDS011;5824;49.336;8.652;2023-01-19T06:51:44;19.57;;;10.97;;
11535;SDS011;5824;49.336;8.652;2023-01-19T06:54:09;21.70;;;12.03;;
11535;SDS011;5824;49.336;8.652;2023-01-19T06:56:35;19.13;;;10.97;;
11535;SDS011;5824;49.336;8.652;2023-01-19T06:59:00;20.37;;;11.23;;
11535;SDS011;5824;49.336;8.652;2023-01-19T07:01:26;18.70;;;11.93;;
11535;SDS011;5824;49.336;8.652;2023-01-19T07:03:51;23.07;;;11.77;;
11535;SDS011;5824;49.336;8.652;2023-01-19T07:06:17;28.20;;;12.90;;
11535;SDS011;5824;49.336;8.652;2023-01-19T07:08:43;26.43;;;12.47;;
11535;SDS011;5824;49.336;8.652;2023-01-19T07:11:10;20.40;;;11.93;;
11535;SDS011;5824;49.336;8.652;2023-01-19T07:13:37;20.83;;;12.00;;
11535;SDS011;5824;49.336;8.652;2023-01-19T07:16:07;18.50;;;11.23;;
11535;SDS011;5824;49.336;8.652;2023-01-19T07:18:35;18.93;;;10.70;;
11535;SDS011;5824;49.336;8.652;2023-01-19T07:21:01;21.13;;;11.83;;
11535;SDS011;5824;49.336;8.652;2023-01-19T07:23:27;25.00;;;11.43;;
11535;SDS011;5824;49.336;8.652;2023-01-19T07:25:55;19.60;;;11.63;;
11535;SDS011;5824;49.336;8.652;2023-01-19T07:28:21;21.43;;;11.57;;
11535;SDS011;5824;49.336;8.652;2023-01-19T07:30:50;15.70;;;10.43;;
11535;SDS011;5824;49.336;8.652;2023-01-19T07:33:17;21.60;;;10.80;;
11535;SDS011;5824;49.336;8.652;2023-01-19T07:35:46;20.00;;;11.53;;
11535;SDS011;5824;49.336;8.652;2023-01-19T07:38:12;18.10;;;10.70;;
11535;SDS011;5824;49.336;8.652;2023-01-19T07:40:38;18.30;;;10.90;;
11535;SDS011;5824;49.336;8.652;2023-01-19T07:43:03;22.75;;;11.63;;
11535;SDS011;5824;49.336;8.652;2023-01-19T07:45:29;18.30;;;11.17;;
11535;SDS011;5824;49.336;8.652;2023-01-19T07:47:54;16.23;;;10.30;;
11535;SDS011;5824;49.336;8.652;2023-01-19T07:50:20;20.57;;;10.93;;
11535;SDS011;5824;49.336;8.652;2023-01-19T07:52:49;17.87;;;10.93;;
11535;SDS011;5824;49.336;8.652;2023-01-19T07:55:17;18.03;;;10.33;;
11535;SDS011;5824;49.336;8.652;2023-01-19T07:57:43;18.23;;;10.00;;
11535;SDS011;5824;49.336;8.652;2023-01-19T08:00:09;17.13;;;10.90;;
11535;SDS011;5824;49.336;8.652;2023-01-19T08:02:35;20.93;;;11.47;;
11535;SDS011;5824;49.336;8.652;2023-01-19T08:05:01;17.00;;;10.53;;
11535;SDS011;5824;49.336;8.652;2023-01-19T08:07:27;17.73;;;10.67;;
11535;SDS011;5824;49.336;8.652;2023-01-19T08:09:53;18.97;;;10.53;;
11535;SDS011;5824;49.336;8.652;2023-01-19T08:12:18;18.83;;;10.80;;
11535;SDS011;5824;49.336;8.652;2023-01-19T08:14:44;18.37;;;10.80;;
11535;SDS011;5824;49.336;8.652;2023-01-19T08:17:11;15.90;;;9.77;;
11535;SDS011;5824;49.336;8.652;2023-01-19T08:19:37;18.40;;;9.40;;
11535;SDS011;5824;49.336;8.652;2023-01-19T08:22:03;18.60;;;10.07;;
11535;SDS011;5824;49.336;8.652;2023-01-19T08:24:29;18.73;;;9.60;;
11535;SDS011;5824;49.336;8.652;2023-01-19T08:26:59;16.83;;;10.30;;
11535;SDS011;5824;49.336;8.652;2023-01-19T08:29:25;21.80;;;12.80;;
11535;SDS011;5824;49.336;8.652;2023-01-19T08:31:51;18.57;;;10.73;;
11535;SDS011;5824;49.336;8.652;2023-01-19T08:34:19;18.10;;;10.73;;
11535;SDS011;5824;49.336;8.652;2023-01-19T08:36:45;25.07;;;10.80;;
11535;SDS011;5824;49.336;8.652;2023-01-19T08:39:11;15.57;;;10.23;;
11535;SDS011;5824;49.336;8.652;2023-01-19T08:41:37;14.30;;;8.47;;
11535;SDS011;5824;49.336;8.652;2023-01-19T08:44:02;16.03;;;9.90;;
11535;SDS011;5824;49.336;8.652;2023-01-19T08:46:28;15.17;;;9.30;;
11535;SDS011;5824;49.336;8.652;2023-01-19T08:48:53;13.97;;;9.47;;
11535;SDS011;5824;49.336;8.652;2023-01-19T08:51:19;17.17;;;9.77;;
11535;SDS011;5824;49.336;8.652;2023-01-19T08:53:45;16.97;;;10.00;;
11535;SDS011;5824;49.336;8.652;2023-01-19T08:56:10;14.40;;;9.00;;
11535;SDS011;5824;49.336;8.652;2023-01-19T08:58:41;15.60;;;9.47;;
11535;SDS011;5824;49.336;8.652;2023-01-19T09:01:11;15.40;;;9.73;;
11535;SDS011;5824;49.336;8.652;2023-01-19T09:03:46;17.50;;;9.37;;
11535;SDS011;5824;49.336;8.652;2023-01-19T09:06:12;14.70;;;9.33;;
11535;SDS011;5824;49.336;8.652;2023-01-19T09:08:42;16.40;;;9.43;;
11535;SDS011;5824;49.336;8.652;2023-01-19T09:11:08;16.83;;;9.90;;
11535;SDS011;5824;49.336;8.652;2023-01-19T09:13:37;14.10;;;9.93;;
11535;SDS011;5824;49.336;8.652;2023-01-19T09:16:03;16.17;;;9.50;;
11535;SDS011;5824;49.336;8.652;2023-01-19T09:18:31;17.00;;;10.50;;
11535;SDS011;5824;49.336;8.652;2023-01-19T09:20:58;19.80;;;10.07;;
11535;SDS011;5824;49.336;8.652;2023-01-19T09:23:24;16.10;;;9.50;;
11535;SDS011;5824;49.336;8.652;2023-01-19T09:25:54;16.03;;;10.07;;
11535;SDS011;5824;49.336;8.652;2023-01-19T09:28:21;15.60;;;9.80;;
11535;SDS011;5824;49.336;8.652;2023-01-19T09:30:46;14.20;;;9.57;;
11535;SDS011;5824;49.336;8.652;2023-01-19T09:33:13;17.03;;;10.00;;
11535;SDS011;5824;49.336;8.652;2023-01-19T09:35:40;19.90;;;10.53;;
11535;SDS011;5824;49.336;8.652;2023-01-19T09:38:07;16.47;;;9.50;;
11535;SDS011;5824;49.336;8.652;2023-01-19T09:40:35;17.33;;;9.60;;
11535;SDS011;5824;49.336;8.652;2023-01-19T09:45:51;15.53;;;10.27;;
11535;SDS011;5824;49.336;8.652;2023-01-19T09:51:00;15.80;;;10.30;;
11535;SDS011;5824;49.336;8.652;2023-01-19T09:56:02;16.70;;;10.33;;
11535;SDS011;5824;49.336;8.652;2023-01-19T09:58:28;20.23;;;9.63;;
11535;SDS011;5824;49.336;8.652;2023-01-19T10:00:58;19.27;;;10.27;;
11535;SDS011;5824;49.336;8.652;2023-01-19T10:03:32;17.00;;;10.30;;
11535;SDS011;5824;49.336;8.652;2023-01-19T10:06:01;17.30;;;10.90;;
11535;SDS011;5824;49.336;8.652;2023-01-19T10:08:36;21.60;;;11.80;;
11535;SDS011;5824;49.336;8.652;2023-01-19T10:11:43;17.53;;;10.00;;
11535;SDS011;5824;49.336;8.652;2023-01-19T10:14:16;23.10;;;10.90;;
11535;SDS011;5824;49.336;8.652;2023-01-19T10:17:00;17.67;;;10.30;;
11535;SDS011;5824;49.336;8.652;2023-01-19T10:19:50;14.60;;;9.70;;
11535;SDS011;5824;49.336;8.652;2023-01-19T10:22:20;14.13;;;8.03;;
11535;SDS011;5824;49.336;8.652;2023-01-19T10:24:46;16.13;;;11.53;;
11535;SDS011;5824;49.336;8.652;2023-01-19T10:27:17;20.50;;;10.17;;
11535;SDS011;5824;49.336;8.652;2023-01-19T10:29:47;20.57;;;10.30;;
11535;SDS011;5824;49.336;8.652;2023-01-19T10:32:29;23.93;;;10.43;;
11535;SDS011;5824;49.336;8.652;2023-01-19T10:34:58;17.80;;;10.80;;
11535;SDS011;5824;49.336;8.652;2023-01-19T10:37:29;19.00;;;10.10;;
11535;SDS011;5824;49.336;8.652;2023-01-19T10:40:12;16.97;;;10.00;;
11535;SDS011;5824;49.336;8.652;2023-01-19T10:42:44;20.40;;;10.70;;
11535;SDS011;5824;49.336;8.652;2023-01-19T10:45:16;21.03;;;10.00;;
11535;SDS011;5824;49.336;8.652;2023-01-19T10:47:44;18.73;;;9.33;;
11535;SDS011;5824;49.336;8.652;2023-01-19T10:52:59;16.60;;;9.60;;
11535;SDS011;5824;49.336;8.652;2023-01-19T10:55:28;16.17;;;10.70;;
11535;SDS011;5824;49.336;8.652;2023-01-19T10:57:55;19.53;;;9.97;;
11535;SDS011;5824;49.336;8.652;2023-01-19T11:00:35;16.20;;;9.37;;
11535;SDS011;5824;49.336;8.652;2023-01-19T11:05:47;15.80;;;9.37;;
11535;SDS011;5824;49.336;8.652;2023-01-19T11:08:23;18.90;;;9.90;;
11535;SDS011;5824;49.336;8.652;2023-01-19T11:10:58;15.27;;;8.93;;
11535;SDS011;5824;49.336;8.652;2023-01-19T11:13:28;15.33;;;9.27;;
11535;SDS011;5824;49.336;8.652;2023-01-19T11:15:55;13.80;;;9.07;;
11535;SDS011;5824;49.336;8.652;2023-01-19T11:18:36;14.93;;;9.83;;
11535;SDS011;5824;49.336;8.652;2023-01-19T11:21:07;14.00;;;9.23;;
11535;SDS011;5824;49.336;8.652;2023-01-19T11:23:47;16.30;;;9.40;;
11535;SDS011;5824;49.336;8.652;2023-01-19T11:26:26;13.10;;;9.03;;
11535;SDS011;5824;49.336;8.652;2023-01-19T11:29:20;14.13;;;8.63;;
11535;SDS011;5824;49.336;8.652;2023-01-19T11:31:49;12.37;;;8.60;;
11535;SDS011;5824;49.336;8.652;2023-01-19T11:34:29;16.53;;;9.40;;
11535;SDS011;5824;49.336;8.652;2023-01-19T11:36:59;14.50;;;7.93;;
11535;SDS011;5824;49.336;8.652;2023-01-19T11:39:30;15.60;;;9.80;;
11535;SDS011;5824;49.336;8.652;2023-01-19T11:42:08;14.80;;;9.07;;
11535;SDS011;5824;49.336;8.652;2023-01-19T11:45:10;11.90;;;8.47;;
11535;SDS011;5824;49.336;8.652;2023-01-19T11:47:44;15.20;;;8.93;;
11535;SDS011;5824;49.336;8.652;2023-01-19T11:50:23;13.20;;;8.00;;
11535;SDS011;5824;49.336;8.652;2023-01-19T11:55:40;14.50;;;8.27;;
11535;SDS011;5824;49.336;8.652;2023-01-19T11:58:13;14.20;;;8.83;;
11535;SDS011;5824;49.336;8.652;2023-01-19T12:00:42;14.10;;;8.47;;
11535;SDS011;5824;49.336;8.652;2023-01-19T12:03:30;14.23;;;9.47;;
11535;SDS011;5824;49.336;8.652;2023-01-19T12:06:07;13.30;;;8.57;;
11535;SDS011;5824;49.336;8.652;2023-01-19T12:08:45;14.07;;;9.57;;
11535;SDS011;5824;49.336;8.652;2023-01-19T12:11:16;15.00;;;7.70;;
11535;SDS011;5824;49.336;8.652;2023-01-19T12:13:46;13.40;;;7.80;;
11535;SDS011;5824;49.336;8.652;2023-01-19T12:16:16;17.23;;;8.87;;
11535;SDS011;5824;49.336;8.652;2023-01-19T12:18:50;15.30;;;8.80;;
11535;SDS011;5824;49.336;8.652;2023-01-19T12:21:23;13.00;;;8.27;;
11535;SDS011;5824;49.336;8.652;2023-01-19T12:24:09;12.50;;;8.23;;
11535;SDS011;5824;49.336;8.652;2023-01-19T12:26:53;14.73;;;8.43;;
11535;SDS011;5824;49.336;8.652;2023-01-19T12:29:21;14.63;;;8.13;;
11535;SDS011;5824;49.336;8.652;2023-01-19T12:34:47;14.03;;;8.00;;
11535;SDS011;5824;49.336;8.652;2023-01-19T12:37:47;12.67;;;8.17;;
11535;SDS011;5824;49.336;8.652;2023-01-19T12:40:25;15.03;;;8.50;;
11535;SDS011;5824;49.336;8.652;2023-01-19T12:42:57;13.70;;;8.93;;
11535;SDS011;5824;49.336;8.652;2023-01-19T12:45:29;21.93;;;13.67;;
11535;SDS011;5824;49.336;8.652;2023-01-19T12:47:58;13.50;;;8.90;;
11535;SDS011;5824;49.336;8.652;2023-01-19T12:50:26;19.57;;;12.47;;
11535;SDS011;5824;49.336;8.652;2023-01-19T12:53:02;12.07;;;8.40;;
11535;SDS011;5824;49.336;8.652;2023-01-19T12:55:33;14.83;;;7.80;;
11535;SDS011;5824;49.336;8.652;2023-01-19T12:58:12;12.40;;;7.10;;
11535;SDS011;5824;49.336;8.652;2023-01-19T13:00:45;14.10;;;8.87;;
11535;SDS011;5824;49.336;8.652;2023-01-19T13:13:29;13.20;;;8.03;;
11535;SDS011;5824;49.336;8.652;2023-01-19T13:18:42;12.93;;;7.40;;
11535;SDS011;5824;49.336;8.652;2023-01-19T13:21:36;13.43;;;8.37;;
11535;SDS011;5824;49.336;8.652;2023-01-19T13:24:13;13.60;;;8.00;;
11535;SDS011;5824;49.336;8.652;2023-01-19T13:31:54;10.40;;;5.77;;
11535;SDS011;5824;49.336;8.652;2023-01-19T13:34:26;8.23;;;5.80;;
11535;SDS011;5824;49.336;8.652;2023-01-19T13:36:54;11.90;;;6.30;;
11535;SDS011;5824;49.336;8.652;2023-01-19T13:39:27;10.00;;;5.53;;
11535;SDS011;5824;49.336;8.652;2023-01-19T13:42:00;9.97;;;5.53;;
11535;SDS011;5824;49.336;8.652;2023-01-19T13:44:34;9.07;;;6.10;;
11535;SDS011;5824;49.336;8.652;2023-01-19T13:47:04;10.47;;;6.30;;
11535;SDS011;5824;49.336;8.652;2023-01-19T13:49:35;9.43;;;5.90;;
11535;SDS011;5824;49.336;8.652;2023-01-19T13:54:36;9.70;;;6.00;;
11535;SDS011;5824;49.336;8.652;2023-01-19T14:00:04;9.60;;;6.03;;
11535;SDS011;5824;49.336;8.652;2023-01-19T14:02:33;7.50;;;5.37;;
11535;SDS011;5824;49.336;8.652;2023-01-19T14:05:11;9.73;;;5.90;;
11535;SDS011;5824;49.336;8.652;2023-01-19T14:07:47;10.57;;;5.73;;
11535;SDS011;5824;49.336;8.652;2023-01-19T14:10:27;9.73;;;5.40;;
11535;SDS011;5824;49.336;8.652;2023-01-19T14:12:59;9.83;;;5.20;;
11535;SDS011;5824;49.336;8.652;2023-01-19T14:15:24;9.10;;;5.67;;
11535;SDS011;5824;49.336;8.652;2023-01-19T14:18:07;15.63;;;5.47;;
11535;SDS011;5824;49.336;8.652;2023-01-19T14:26:06;9.13;;;5.50;;
11535;SDS011;5824;49.336;8.652;2023-01-19T14:29:15;7.97;;;5.40;;
11535;SDS011;5824;49.336;8.652;2023-01-19T14:31:43;6.60;;;5.13;;
11535;SDS011;5824;49.336;8.652;2023-01-19T14:35:11;8.33;;;5.40;;
11535;SDS011;5824;49.336;8.652;2023-01-19T14:37:04;10.77;;;5.97;;
11535;SDS011;5824;49.336;8.652;2023-01-19T14:39:57;7.60;;;5.17;;
11535;SDS011;5824;49.336;8.652;2023-01-19T14:42:44;12.10;;;5.53;;
11535;SDS011;5824;49.336;8.652;2023-01-19T14:45:26;9.33;;;5.90;;
11535;SDS011;5824;49.336;8.652;2023-01-19T14:47:57;8.53;;;5.83;;
11535;SDS011;5824;49.336;8.652;2023-01-19T14:52:59;12.47;;;6.10;;
11535;SDS011;5824;49.336;8.652;2023-01-19T14:55:42;9.93;;;5.50;;
11535;SDS011;5824;49.336;8.652;2023-01-19T14:58:11;8.13;;;5.20;;
11535;SDS011;5824;49.336;8.652;2023-01-19T15:00:38;7.60;;;5.23;;
11535;SDS011;5824;49.336;8.652;2023-01-19T15:03:05;7.63;;;4.23;;
11535;SDS011;5824;49.336;8.652;2023-01-19T15:05:31;7.10;;;4.60;;
11535;SDS011;5824;49.336;8.652;2023-01-19T15:07:57;11.47;;;4.90;;
11535;SDS011;5824;49.336;8.652;2023-01-19T15:10:23;8.87;;;4.60;;
11535;SDS011;5824;49.336;8.652;2023-01-19T15:12:50;14.10;;;5.50;;
11535;SDS011;5824;49.336;8.652;2023-01-19T15:15:20;8.00;;;4.83;;
11535;SDS011;5824;49.336;8.652;2023-01-19T15:17:50;8.67;;;5.17;;
11535;SDS011;5824;49.336;8.652;2023-01-19T15:20:17;11.23;;;5.60;;
11535;SDS011;5824;49.336;8.652;2023-01-19T15:22:44;10.57;;;5.53;;
11535;SDS011;5824;49.336;8.652;2023-01-19T15:25:17;7.27;;;5.00;;
11535;SDS011;5824;49.336;8.652;2023-01-19T15:27:44;8.00;;;4.90;;
11535;SDS011;5824;49.336;8.652;2023-01-19T15:30:14;9.70;;;5.17;;
11535;SDS011;5824;49.336;8.652;2023-01-19T15:32:44;12.20;;;6.93;;
11535;SDS011;5824;49.336;8.652;2023-01-19T15:35:13;7.00;;;4.77;;
11535;SDS011;5824;49.336;8.652;2023-01-19T15:37:43;8.93;;;5.03;;
11535;SDS011;5824;49.336;8.652;2023-01-19T15:40:09;8.30;;;5.30;;
11535;SDS011;5824;49.336;8.652;2023-01-19T15:42:35;7.97;;;5.27;;
11535;SDS011;5824;49.336;8.652;2023-01-19T15:45:01;8.03;;;5.23;;
11535;SDS011;5824;49.336;8.652;2023-01-19T15:47:26;9.00;;;4.63;;
11535;SDS011;5824;49.336;8.652;2023-01-19T15:49:52;8.93;;;5.20;;
11535;SDS011;5824;49.336;8.652;2023-01-19T15:52:17;8.83;;;4.43;;
11535;SDS011;5824;49.336;8.652;2023-01-19T15:54:43;9.50;;;4.73;;
11535;SDS011;5824;49.336;8.652;2023-01-19T15:57:11;6.97;;;4.50;;
11535;SDS011;5824;49.336;8.652;2023-01-19T15:59:37;5.50;;;4.00;;